sensor_id;sensor_type;location;lat;lon;timestamp;temperature;humidity
11540;DHT22;5826;54.756;9.192;2023-11-19T00:02:11;6.30;90.80
11540;DHT22;5826;54.756;9.192;2023-11-19T00:04:37;6.30;90.70
11540;DHT22;5826;54.756;9.192;2023-11-19T00:07:05;6.20;90.70
11540;DHT22;5826;54.756;9.192;2023-11-19T00:09:32;6.20;90.70
11540;DHT22;5826;54.756;9.192;2023-11-19T00:11:58;6.30;90.70
11540;DHT22;5826;54.756;9.192;2023-11-19T00:14:26;6.30;90.80
11540;DHT22;5826;54.756;9.192;2023-11-19T00:16:51;6.30;90.90
11540;DHT22;5826;54.756;9.192;2023-11-19T00:19:17;6.30;90.80
11540;DHT22;5826;54.756;9.192;2023-11-19T00:21:42;6.30;90.80
11540;DHT22;5826;54.756;9.192;2023-11-19T00:24:08;6.30;90.70
11540;DHT22;5826;54.756;9.192;2023-11-19T00:26:34;6.30;90.80
11540;DHT22;5826;54.756;9.192;2023-11-19T00:28:59;6.30;90.80
11540;DHT22;5826;54.756;9.192;2023-11-19T00:31:25;6.30;90.70
11540;DHT22;5826;54.756;9.192;2023-11-19T00:33:53;6.30;90.70
11540;DHT22;5826;54.756;9.192;2023-11-19T00:36:18;6.30;90.70
11540;DHT22;5826;54.756;9.192;2023-11-19T00:38:44;6.30;90.70
11540;DHT22;5826;54.756;9.192;2023-11-19T00:41:09;6.30;90.80
11540;DHT22;5826;54.756;9.192;2023-11-19T00:43:35;6.30;91.10
11540;DHT22;5826;54.756;9.192;2023-11-19T00:46:01;6.30;90.80
11540;DHT22;5826;54.756;9.192;2023-11-19T00:48:28;6.30;90.90
11540;DHT22;5826;54.756;9.192;2023-11-19T00:50:53;6.30;90.90
11540;DHT22;5826;54.756;9.192;2023-11-19T00:53:19;6.30;91.10
11540;DHT22;5826;54.756;9.192;2023-11-19T00:55:44;6.30;90.90
11540;DHT22;5826;54.756;9.192;2023-11-19T00:58:10;6.30;90.80
11540;DHT22;5826;54.756;9.192;2023-11-19T01:00:35;6.30;90.90
11540;DHT22;5826;54.756;9.192;2023-11-19T01:03:01;6.30;90.90
11540;DHT22;5826;54.756;9.192;2023-11-19T01:05:26;6.30;90.90
11540;DHT22;5826;54.756;9.192;2023-11-19T01:07:53;6.30;90.90
11540;DHT22;5826;54.756;9.192;2023-11-19T01:10:20;6.30;90.90
11540;DHT22;5826;54.756;9.192;2023-11-19T01:12:46;6.30;90.80
11540;DHT22;5826;54.756;9.192;2023-11-19T01:15:11;6.30;90.80
11540;DHT22;5826;54.756;9.192;2023-11-19T01:17:38;6.30;90.80
11540;DHT22;5826;54.756;9.192;2023-11-19T01:20:04;6.30;90.80
11540;DHT22;5826;54.756;9.192;2023-11-19T01:22:32;6.30;90.70
11540;DHT22;5826;54.756;9.192;2023-11-19T01:24:57;6.30;90.80
11540;DHT22;5826;54.756;9.192;2023-11-19T01:27:24;6.30;90.70
11540;DHT22;5826;54.756;9.192;2023-11-19T01:29:49;6.30;90.80
11540;DHT22;5826;54.756;9.192;2023-11-19T01:32:15;6.30;90.80
11540;DHT22;5826;54.756;9.192;2023-11-19T01:34:40;6.30;90.80
11540;DHT22;5826;54.756;9.192;2023-11-19T01:37:06;6.30;90.90
11540;DHT22;5826;54.756;9.192;2023-11-19T01:39:34;6.20;90.80
11540;DHT22;5826;54.756;9.192;2023-11-19T01:41:59;6.30;90.90
11540;DHT22;5826;54.756;9.192;2023-11-19T01:44:25;6.30;90.90
11540;DHT22;5826;54.756;9.192;2023-11-19T01:46:50;6.30;90.90
11540;DHT22;5826;54.756;9.192;2023-11-19T01:49:17;6.30;91.00
11540;DHT22;5826;54.756;9.192;2023-11-19T01:51:43;6.30;91.10
11540;DHT22;5826;54.756;9.192;2023-11-19T01:54:09;6.30;91.00
11540;DHT22;5826;54.756;9.192;2023-11-19T01:56:36;6.30;91.00
11540;DHT22;5826;54.756;9.192;2023-11-19T01:59:03;6.30;90.90
11540;DHT22;5826;54.756;9.192;2023-11-19T02:01:29;6.30;90.90
11540;DHT22;5826;54.756;9.192;2023-11-19T02:03:55;6.40;90.80
11540;DHT22;5826;54.756;9.192;2023-11-19T02:06:21;6.40;90.90
11540;DHT22;5826;54.756;9.192;2023-11-19T02:08:46;6.40;90.80
11540;DHT22;5826;54.756;9.192;2023-11-19T02:11:12;6.30;90.90
11540;DHT22;5826;54.756;9.192;2023-11-19T02:13:38;6.40;90.90
11540;DHT22;5826;54.756;9.192;2023-11-19T02:16:03;6.40;91.00
11540;DHT22;5826;54.756;9.192;2023-11-19T02:18:30;6.40;90.90
11540;DHT22;5826;54.756;9.192;2023-11-19T02:20:57;6.40;90.90
11540;DHT22;5826;54.756;9.192;2023-11-19T02:23:24;6.40;91.00
11540;DHT22;5826;54.756;9.192;2023-11-19T02:26:13;6.40;90.90
11540;DHT22;5826;54.756;9.192;2023-11-19T02:28:41;6.40;90.90
11540;DHT22;5826;54.756;9.192;2023-11-19T02:31:08;6.40;90.90
11540;DHT22;5826;54.756;9.192;2023-11-19T02:33:37;6.40;90.90
11540;DHT22;5826;54.756;9.192;2023-11-19T02:36:04;6.40;90.90
11540;DHT22;5826;54.756;9.192;2023-11-19T02:38:30;6.50;90.90
11540;DHT22;5826;54.756;9.192;2023-11-19T02:40:56;6.50;90.90
11540;DHT22;5826;54.756;9.192;2023-11-19T02:43:22;6.50;90.90
11540;DHT22;5826;54.756;9.192;2023-11-19T02:45:48;6.50;90.90
11540;DHT22;5826;54.756;9.192;2023-11-19T02:48:13;6.50;91.20
11540;DHT22;5826;54.756;9.192;2023-11-19T02:50:41;6.50;90.80
11540;DHT22;5826;54.756;9.192;2023-11-19T02:53:07;6.50;90.90
11540;DHT22;5826;54.756;9.192;2023-11-19T02:55:32;6.50;90.90
11540;DHT22;5826;54.756;9.192;2023-11-19T02:58:03;6.50;90.80
11540;DHT22;5826;54.756;9.192;2023-11-19T03:00:34;6.50;90.90
11540;DHT22;5826;54.756;9.192;2023-11-19T03:03:12;6.50;90.90
11540;DHT22;5826;54.756;9.192;2023-11-19T03:05:49;6.50;91.00
11540;DHT22;5826;54.756;9.192;2023-11-19T03:08:15;6.50;90.90
11540;DHT22;5826;54.756;9.192;2023-11-19T03:10:41;6.50;90.90
11540;DHT22;5826;54.756;9.192;2023-11-19T03:13:11;6.50;90.90
11540;DHT22;5826;54.756;9.192;2023-11-19T03:15:38;6.50;90.90
11540;DHT22;5826;54.756;9.192;2023-11-19T03:18:04;6.50;90.90
11540;DHT22;5826;54.756;9.192;2023-11-19T03:20:29;6.70;90.90
11540;DHT22;5826;54.756;9.192;2023-11-19T03:22:55;6.50;90.90
11540;DHT22;5826;54.756;9.192;2023-11-19T03:25:25;6.50;90.80
11540;DHT22;5826;54.756;9.192;2023-11-19T03:27:52;6.50;90.90
11540;DHT22;5826;54.756;9.192;2023-11-19T03:30:18;6.50;91.00
11540;DHT22;5826;54.756;9.192;2023-11-19T03:32:46;6.50;91.00
11540;DHT22;5826;54.756;9.192;2023-11-19T03:35:11;6.50;91.00
11540;DHT22;5826;54.756;9.192;2023-11-19T03:37:37;6.50;91.00
11540;DHT22;5826;54.756;9.192;2023-11-19T03:40:03;6.50;91.00
11540;DHT22;5826;54.756;9.192;2023-11-19T03:42:29;6.40;91.00
11540;DHT22;5826;54.756;9.192;2023-11-19T03:44:56;6.50;91.10
11540;DHT22;5826;54.756;9.192;2023-11-19T03:47:22;6.50;91.00
11540;DHT22;5826;54.756;9.192;2023-11-19T03:49:51;6.50;91.00
11540;DHT22;5826;54.756;9.192;2023-11-19T03:52:19;6.50;91.00
11540;DHT22;5826;54.756;9.192;2023-11-19T03:54:45;6.50;91.00
11540;DHT22;5826;54.756;9.192;2023-11-19T03:57:12;6.50;91.00
11540;DHT22;5826;54.756;9.192;2023-11-19T03:59:37;6.60;91.00
11540;DHT22;5826;54.756;9.192;2023-11-19T04:02:03;6.50;90.90
11540;DHT22;5826;54.756;9.192;2023-11-19T04:04:29;6.50;90.90
11540;DHT22;5826;54.756;9.192;2023-11-19T04:06:57;6.50;91.00
11540;DHT22;5826;54.756;9.192;2023-11-19T04:09:23;6.50;91.00
11540;DHT22;5826;54.756;9.192;2023-11-19T04:11:48;6.50;91.10
11540;DHT22;5826;54.756;9.192;2023-11-19T04:14:14;6.60;91.10
11540;DHT22;5826;54.756;9.192;2023-11-19T04:16:40;6.60;91.00
11540;DHT22;5826;54.756;9.192;2023-11-19T04:19:06;6.60;91.10
11540;DHT22;5826;54.756;9.192;2023-11-19T04:21:32;6.60;91.00
11540;DHT22;5826;54.756;9.192;2023-11-19T04:23:58;6.60;91.00
11540;DHT22;5826;54.756;9.192;2023-11-19T04:26:23;6.60;90.90
11540;DHT22;5826;54.756;9.192;2023-11-19T04:28:49;6.60;90.90
11540;DHT22;5826;54.756;9.192;2023-11-19T04:31:15;6.60;91.40
11540;DHT22;5826;54.756;9.192;2023-11-19T04:33:42;6.60;91.10
11540;DHT22;5826;54.756;9.192;2023-11-19T04:36:08;6.70;91.10
11540;DHT22;5826;54.756;9.192;2023-11-19T04:38:33;6.70;91.10
11540;DHT22;5826;54.756;9.192;2023-11-19T04:41:00;6.70;91.10
11540;DHT22;5826;54.756;9.192;2023-11-19T04:43:25;6.70;91.10
11540;DHT22;5826;54.756;9.192;2023-11-19T04:45:51;6.70;91.10
11540;DHT22;5826;54.756;9.192;2023-11-19T04:48:16;6.70;91.00
11540;DHT22;5826;54.756;9.192;2023-11-19T04:50:42;6.70;91.00
11540;DHT22;5826;54.756;9.192;2023-11-19T04:53:07;6.70;91.00
11540;DHT22;5826;54.756;9.192;2023-11-19T04:55:33;6.80;91.00
11540;DHT22;5826;54.756;9.192;2023-11-19T04:57:58;6.80;91.00
11540;DHT22;5826;54.756;9.192;2023-11-19T05:00:24;6.80;91.00
11540;DHT22;5826;54.756;9.192;2023-11-19T05:02:49;6.80;91.00
11540;DHT22;5826;54.756;9.192;2023-11-19T05:05:16;6.80;91.10
11540;DHT22;5826;54.756;9.192;2023-11-19T05:07:41;6.80;91.00
11540;DHT22;5826;54.756;9.192;2023-11-19T05:10:07;6.80;91.00
11540;DHT22;5826;54.756;9.192;2023-11-19T05:12:33;6.80;91.10
11540;DHT22;5826;54.756;9.192;2023-11-19T05:14:58;6.80;91.10
11540;DHT22;5826;54.756;9.192;2023-11-19T05:17:24;6.80;91.10
11540;DHT22;5826;54.756;9.192;2023-11-19T05:19:49;6.90;91.10
11540;DHT22;5826;54.756;9.192;2023-11-19T05:22:15;6.80;91.10
11540;DHT22;5826;54.756;9.192;2023-11-19T05:24:40;6.80;91.10
11540;DHT22;5826;54.756;9.192;2023-11-19T05:27:06;6.90;91.10
11540;DHT22;5826;54.756;9.192;2023-11-19T05:29:33;6.90;91.10
11540;DHT22;5826;54.756;9.192;2023-11-19T05:31:59;6.90;91.10
11540;DHT22;5826;54.756;9.192;2023-11-19T05:34:24;6.90;91.10
11540;DHT22;5826;54.756;9.192;2023-11-19T05:36:50;6.90;91.00
11540;DHT22;5826;54.756;9.192;2023-11-19T05:39:16;7.00;91.10
11540;DHT22;5826;54.756;9.192;2023-11-19T05:41:43;7.00;91.00
11540;DHT22;5826;54.756;9.192;2023-11-19T05:44:08;7.00;91.10
11540;DHT22;5826;54.756;9.192;2023-11-19T05:46:34;7.00;91.10
11540;DHT22;5826;54.756;9.192;2023-11-19T05:49:05;7.10;91.10
11540;DHT22;5826;54.756;9.192;2023-11-19T05:51:31;7.10;91.20
11540;DHT22;5826;54.756;9.192;2023-11-19T05:53:56;7.10;91.20
11540;DHT22;5826;54.756;9.192;2023-11-19T05:56:23;7.10;91.30
11540;DHT22;5826;54.756;9.192;2023-11-19T05:58:48;7.10;91.20
11540;DHT22;5826;54.756;9.192;2023-11-19T06:01:14;7.10;91.20
11540;DHT22;5826;54.756;9.192;2023-11-19T06:03:40;7.10;91.20
11540;DHT22;5826;54.756;9.192;2023-11-19T06:06:06;7.10;91.30
11540;DHT22;5826;54.756;9.192;2023-11-19T06:08:32;7.20;91.40
11540;DHT22;5826;54.756;9.192;2023-11-19T06:10:57;7.20;91.20
11540;DHT22;5826;54.756;9.192;2023-11-19T06:13:23;7.20;91.30
11540;DHT22;5826;54.756;9.192;2023-11-19T06:15:49;7.20;91.40
11540;DHT22;5826;54.756;9.192;2023-11-19T06:18:16;7.30;91.20
11540;DHT22;5826;54.756;9.192;2023-11-19T06:20:43;7.30;91.30
11540;DHT22;5826;54.756;9.192;2023-11-19T06:23:08;7.30;91.30
11540;DHT22;5826;54.756;9.192;2023-11-19T06:25:34;7.30;91.20
11540;DHT22;5826;54.756;9.192;2023-11-19T06:28:00;7.30;91.40
11540;DHT22;5826;54.756;9.192;2023-11-19T06:30:26;7.30;91.30
11540;DHT22;5826;54.756;9.192;2023-11-19T06:32:53;7.30;91.30
11540;DHT22;5826;54.756;9.192;2023-11-19T06:35:19;7.40;91.60
11540;DHT22;5826;54.756;9.192;2023-11-19T06:37:44;7.40;91.30
11540;DHT22;5826;54.756;9.192;2023-11-19T06:40:10;7.30;91.20
11540;DHT22;5826;54.756;9.192;2023-11-19T06:42:37;7.30;91.30
11540;DHT22;5826;54.756;9.192;2023-11-19T06:45:04;7.30;91.30
11540;DHT22;5826;54.756;9.192;2023-11-19T06:47:29;7.40;91.30
11540;DHT22;5826;54.756;9.192;2023-11-19T06:49:55;7.40;91.30
11540;DHT22;5826;54.756;9.192;2023-11-19T06:52:21;7.40;91.30
11540;DHT22;5826;54.756;9.192;2023-11-19T06:54:47;7.40;91.30
11540;DHT22;5826;54.756;9.192;2023-11-19T06:57:12;7.30;91.20
11540;DHT22;5826;54.756;9.192;2023-11-19T06:59:38;7.30;91.20
11540;DHT22;5826;54.756;9.192;2023-11-19T07:02:04;7.40;91.30
11540;DHT22;5826;54.756;9.192;2023-11-19T07:04:30;7.40;91.40
11540;DHT22;5826;54.756;9.192;2023-11-19T07:06:56;7.40;91.40
11540;DHT22;5826;54.756;9.192;2023-11-19T07:09:21;7.40;91.30
11540;DHT22;5826;54.756;9.192;2023-11-19T07:11:48;7.40;91.40
11540;DHT22;5826;54.756;9.192;2023-11-19T07:14:15;7.40;91.40
11540;DHT22;5826;54.756;9.192;2023-11-19T07:16:41;7.50;91.50
11540;DHT22;5826;54.756;9.192;2023-11-19T07:19:08;7.50;91.40
11540;DHT22;5826;54.756;9.192;2023-11-19T07:21:33;7.50;91.40
11540;DHT22;5826;54.756;9.192;2023-11-19T07:23:59;7.50;91.50
11540;DHT22;5826;54.756;9.192;2023-11-19T07:26:25;7.60;91.50
11540;DHT22;5826;54.756;9.192;2023-11-19T07:28:51;7.60;91.40
11540;DHT22;5826;54.756;9.192;2023-11-19T07:31:17;7.60;91.40
11540;DHT22;5826;54.756;9.192;2023-11-19T07:33:45;7.70;91.50
11540;DHT22;5826;54.756;9.192;2023-11-19T07:36:11;7.70;91.40
11540;DHT22;5826;54.756;9.192;2023-11-19T07:38:37;7.80;91.50
11540;DHT22;5826;54.756;9.192;2023-11-19T07:41:03;7.80;91.50
11540;DHT22;5826;54.756;9.192;2023-11-19T07:43:28;7.80;91.50
11540;DHT22;5826;54.756;9.192;2023-11-19T07:45:54;7.80;91.50
11540;DHT22;5826;54.756;9.192;2023-11-19T07:48:19;7.90;91.40
11540;DHT22;5826;54.756;9.192;2023-11-19T07:50:49;7.90;91.40
11540;DHT22;5826;54.756;9.192;2023-11-19T07:53:19;7.90;91.60
11540;DHT22;5826;54.756;9.192;2023-11-19T07:55:45;8.00;91.70
11540;DHT22;5826;54.756;9.192;2023-11-19T07:58:10;8.10;91.60
11540;DHT22;5826;54.756;9.192;2023-11-19T08:00:36;8.10;91.40
11540;DHT22;5826;54.756;9.192;2023-11-19T08:03:03;8.20;91.30
11540;DHT22;5826;54.756;9.192;2023-11-19T08:05:28;8.20;91.20
11540;DHT22;5826;54.756;9.192;2023-11-19T08:07:54;8.30;91.60
11540;DHT22;5826;54.756;9.192;2023-11-19T08:10:20;8.40;91.50
11540;DHT22;5826;54.756;9.192;2023-11-19T08:12:45;8.50;91.70
11540;DHT22;5826;54.756;9.192;2023-11-19T08:15:11;8.60;91.70
11540;DHT22;5826;54.756;9.192;2023-11-19T08:17:37;8.70;91.70
11540;DHT22;5826;54.756;9.192;2023-11-19T08:20:03;8.80;92.60
11540;DHT22;5826;54.756;9.192;2023-11-19T08:22:30;9.00;93.00
11540;DHT22;5826;54.756;9.192;2023-11-19T08:24:56;9.20;93.20
11540;DHT22;5826;54.756;9.192;2023-11-19T08:27:21;9.30;92.90
11540;DHT22;5826;54.756;9.192;2023-11-19T08:29:55;9.40;93.40
11540;DHT22;5826;54.756;9.192;2023-11-19T08:32:25;9.50;93.10
11540;DHT22;5826;54.756;9.192;2023-11-19T08:34:51;9.50;92.80
11540;DHT22;5826;54.756;9.192;2023-11-19T08:37:17;9.60;92.50
11540;DHT22;5826;54.756;9.192;2023-11-19T08:39:49;9.60;92.90
11540;DHT22;5826;54.756;9.192;2023-11-19T08:42:16;9.70;93.10
11540;DHT22;5826;54.756;9.192;2023-11-19T08:44:42;9.70;92.90
11540;DHT22;5826;54.756;9.192;2023-11-19T08:47:12;9.70;92.90
11540;DHT22;5826;54.756;9.192;2023-11-19T08:49:39;9.70;92.60
11540;DHT22;5826;54.756;9.192;2023-11-19T08:52:05;9.80;92.70
11540;DHT22;5826;54.756;9.192;2023-11-19T08:54:32;9.80;92.40
11540;DHT22;5826;54.756;9.192;2023-11-19T08:56:58;9.80;92.90
11540;DHT22;5826;54.756;9.192;2023-11-19T08:59:24;9.90;93.30
11540;DHT22;5826;54.756;9.192;2023-11-19T09:01:50;10.00;93.40
11540;DHT22;5826;54.756;9.192;2023-11-19T09:04:15;10.10;93.20
11540;DHT22;5826;54.756;9.192;2023-11-19T09:06:41;10.10;93.00
11540;DHT22;5826;54.756;9.192;2023-11-19T09:09:08;10.20;93.20
11540;DHT22;5826;54.756;9.192;2023-11-19T09:11:33;10.20;93.00
11540;DHT22;5826;54.756;9.192;2023-11-19T09:13:59;10.20;93.00
11540;DHT22;5826;54.756;9.192;2023-11-19T09:16:24;10.20;93.00
11540;DHT22;5826;54.756;9.192;2023-11-19T09:18:50;10.20;93.00
11540;DHT22;5826;54.756;9.192;2023-11-19T09:21:16;10.20;93.50
11540;DHT22;5826;54.756;9.192;2023-11-19T09:23:41;10.30;93.60
11540;DHT22;5826;54.756;9.192;2023-11-19T09:26:09;10.30;93.60
11540;DHT22;5826;54.756;9.192;2023-11-19T09:28:37;10.30;93.40
11540;DHT22;5826;54.756;9.192;2023-11-19T09:31:03;10.30;93.80
11540;DHT22;5826;54.756;9.192;2023-11-19T09:33:31;10.40;94.00
11540;DHT22;5826;54.756;9.192;2023-11-19T09:35:57;10.40;94.00
11540;DHT22;5826;54.756;9.192;2023-11-19T09:38:23;10.40;94.00
11540;DHT22;5826;54.756;9.192;2023-11-19T09:40:48;10.40;94.00
11540;DHT22;5826;54.756;9.192;2023-11-19T09:43:15;10.50;94.00
11540;DHT22;5826;54.756;9.192;2023-11-19T09:45:50;10.50;94.10
11540;DHT22;5826;54.756;9.192;2023-11-19T09:48:19;10.50;94.00
11540;DHT22;5826;54.756;9.192;2023-11-19T09:50:48;10.50;93.70
11540;DHT22;5826;54.756;9.192;2023-11-19T09:53:15;10.50;93.80
11540;DHT22;5826;54.756;9.192;2023-11-19T09:55:41;10.60;93.80
11540;DHT22;5826;54.756;9.192;2023-11-19T09:58:08;10.60;93.90
11540;DHT22;5826;54.756;9.192;2023-11-19T10:00:34;10.60;93.60
11540;DHT22;5826;54.756;9.192;2023-11-19T10:03:00;10.70;93.70
11540;DHT22;5826;54.756;9.192;2023-11-19T10:05:26;10.70;93.40
11540;DHT22;5826;54.756;9.192;2023-11-19T10:07:52;10.70;93.10
11540;DHT22;5826;54.756;9.192;2023-11-19T10:10:19;10.70;93.30
11540;DHT22;5826;54.756;9.192;2023-11-19T10:12:46;10.70;93.70
11540;DHT22;5826;54.756;9.192;2023-11-19T10:15:21;10.70;93.20
11540;DHT22;5826;54.756;9.192;2023-11-19T10:17:50;10.70;93.20
11540;DHT22;5826;54.756;9.192;2023-11-19T10:20:17;10.80;93.90
11540;DHT22;5826;54.756;9.192;2023-11-19T10:22:42;10.80;93.70
11540;DHT22;5826;54.756;9.192;2023-11-19T10:25:28;10.80;93.60
11540;DHT22;5826;54.756;9.192;2023-11-19T10:27:55;10.90;93.60
11540;DHT22;5826;54.756;9.192;2023-11-19T10:30:30;10.90;93.70
11540;DHT22;5826;54.756;9.192;2023-11-19T10:33:10;11.00;93.70
11540;DHT22;5826;54.756;9.192;2023-11-19T10:35:51;11.00;93.40
11540;DHT22;5826;54.756;9.192;2023-11-19T10:38:20;11.10;93.60
11540;DHT22;5826;54.756;9.192;2023-11-19T10:40:47;11.10;93.40
11540;DHT22;5826;54.756;9.192;2023-11-19T10:43:13;11.80;93.30
11540;DHT22;5826;54.756;9.192;2023-11-19T10:45:39;11.20;93.20
11540;DHT22;5826;54.756;9.192;2023-11-19T10:48:06;11.20;93.20
11540;DHT22;5826;54.756;9.192;2023-11-19T10:50:36;11.10;92.90
11540;DHT22;5826;54.756;9.192;2023-11-19T10:53:03;11.20;93.20
11540;DHT22;5826;54.756;9.192;2023-11-19T10:55:30;11.20;93.30
11540;DHT22;5826;54.756;9.192;2023-11-19T10:58:01;11.20;93.40
11540;DHT22;5826;54.756;9.192;2023-11-19T11:00:29;11.30;93.40
11540;DHT22;5826;54.756;9.192;2023-11-19T11:03:01;11.40;93.60
11540;DHT22;5826;54.756;9.192;2023-11-19T11:05:26;11.60;93.60
11540;DHT22;5826;54.756;9.192;2023-11-19T11:07:55;11.60;93.40
11540;DHT22;5826;54.756;9.192;2023-11-19T11:10:24;11.70;93.60
11540;DHT22;5826;54.756;9.192;2023-11-19T11:12:52;11.70;93.00
11540;DHT22;5826;54.756;9.192;2023-11-19T11:15:26;11.70;93.10
11540;DHT22;5826;54.756;9.192;2023-11-19T11:17:56;11.80;93.40
11540;DHT22;5826;54.756;9.192;2023-11-19T11:20:22;12.00;93.10
11540;DHT22;5826;54.756;9.192;2023-11-19T11:28:51;12.20;92.40
11540;DHT22;5826;54.756;9.192;2023-11-19T11:37:25;12.10;91.90
11540;DHT22;5826;54.756;9.192;2023-11-19T11:39:52;12.10;92.30
11540;DHT22;5826;54.756;9.192;2023-11-19T11:45:09;11.90;92.20
11540;DHT22;5826;54.756;9.192;2023-11-19T11:50:10;11.90;92.40
11540;DHT22;5826;54.756;9.192;2023-11-19T11:55:27;11.90;92.30
11540;DHT22;5826;54.756;9.192;2023-11-19T11:57:54;11.90;92.40
11540;DHT22;5826;54.756;9.192;2023-11-19T12:00:39;11.90;92.30
11540;DHT22;5826;54.756;9.192;2023-11-19T12:03:06;11.90;92.50
11540;DHT22;5826;54.756;9.192;2023-11-19T12:05:33;12.00;92.70
11540;DHT22;5826;54.756;9.192;2023-11-19T12:08:03;12.10;92.40
11540;DHT22;5826;54.756;9.192;2023-11-19T12:10:30;12.20;92.20
11540;DHT22;5826;54.756;9.192;2023-11-19T12:13:00;12.30;92.50
11540;DHT22;5826;54.756;9.192;2023-11-19T12:15:26;12.50;92.50
11540;DHT22;5826;54.756;9.192;2023-11-19T12:17:53;12.80;91.90
11540;DHT22;5826;54.756;9.192;2023-11-19T12:20:21;13.10;91.50
11540;DHT22;5826;54.756;9.192;2023-11-19T12:22:47;13.30;90.60
11540;DHT22;5826;54.756;9.192;2023-11-19T12:25:15;13.40;90.30
11540;DHT22;5826;54.756;9.192;2023-11-19T12:27:48;13.30;89.90
11540;DHT22;5826;54.756;9.192;2023-11-19T12:30:24;13.10;90.00
11540;DHT22;5826;54.756;9.192;2023-11-19T12:32:50;12.90;90.40
11540;DHT22;5826;54.756;9.192;2023-11-19T12:35:16;12.70;90.80
11540;DHT22;5826;54.756;9.192;2023-11-19T12:37:49;12.50;91.20
11540;DHT22;5826;54.756;9.192;2023-11-19T12:42:43;12.40;91.50
11540;DHT22;5826;54.756;9.192;2023-11-19T12:45:08;12.30;91.70
11540;DHT22;5826;54.756;9.192;2023-11-19T12:47:36;12.30;91.70
11540;DHT22;5826;54.756;9.192;2023-11-19T12:50:02;12.30;91.60
11540;DHT22;5826;54.756;9.192;2023-11-19T12:52:29;12.20;91.60
11540;DHT22;5826;54.756;9.192;2023-11-19T12:54:55;12.10;92.10
11540;DHT22;5826;54.756;9.192;2023-11-19T12:57:21;12.00;91.90
11540;DHT22;5826;54.756;9.192;2023-11-19T13:00:00;11.90;92.00
11540;DHT22;5826;54.756;9.192;2023-11-19T13:02:45;11.90;92.20
11540;DHT22;5826;54.756;9.192;2023-11-19T13:08:05;11.80;92.30
11540;DHT22;5826;54.756;9.192;2023-11-19T13:13:15;11.80;92.30
11540;DHT22;5826;54.756;9.192;2023-11-19T13:15:40;11.80;92.20
11540;DHT22;5826;54.756;9.192;2023-11-19T13:18:06;11.80;92.30
11540;DHT22;5826;54.756;9.192;2023-11-19T13:20:32;11.70;92.30
11540;DHT22;5826;54.756;9.192;2023-11-19T13:23:00;11.70;92.40
11540;DHT22;5826;54.756;9.192;2023-11-19T13:25:26;11.70;92.30
11540;DHT22;5826;54.756;9.192;2023-11-19T13:27:52;11.70;92.30
11540;DHT22;5826;54.756;9.192;2023-11-19T13:30:17;11.70;92.30
11540;DHT22;5826;54.756;9.192;2023-11-19T13:32:44;11.70;92.40
11540;DHT22;5826;54.756;9.192;2023-11-19T13:35:14;11.70;92.40
11540;DHT22;5826;54.756;9.192;2023-11-19T13:37:40;11.60;92.50
11540;DHT22;5826;54.756;9.192;2023-11-19T13:40:10;11.60;92.50
11540;DHT22;5826;54.756;9.192;2023-11-19T13:42:42;11.60;92.50
11540;DHT22;5826;54.756;9.192;2023-11-19T13:45:09;11.60;92.50
11540;DHT22;5826;54.756;9.192;2023-11-19T13:47:37;11.60;92.50
11540;DHT22;5826;54.756;9.192;2023-11-19T13:50:13;11.50;92.50
11540;DHT22;5826;54.756;9.192;2023-11-19T13:52:41;11.50;92.40
11540;DHT22;5826;54.756;9.192;2023-11-19T13:55:08;11.50;92.60
11540;DHT22;5826;54.756;9.192;2023-11-19T13:57:35;11.50;92.50
11540;DHT22;5826;54.756;9.192;2023-11-19T14:00:02;11.50;92.50
11540;DHT22;5826;54.756;9.192;2023-11-19T14:02:30;11.50;92.60
11540;DHT22;5826;54.756;9.192;2023-11-19T14:04:56;11.40;92.60
11540;DHT22;5826;54.756;9.192;2023-11-19T14:07:21;11.40;92.60
11540;DHT22;5826;54.756;9.192;2023-11-19T14:09:46;11.40;92.70
11540;DHT22;5826;54.756;9.192;2023-11-19T14:12:12;12.70;93.00
11540;DHT22;5826;54.756;9.192;2023-11-19T14:14:38;11.40;92.70
11540;DHT22;5826;54.756;9.192;2023-11-19T14:17:04;11.30;92.80
11540;DHT22;5826;54.756;9.192;2023-11-19T14:19:30;11.40;92.80
11540;DHT22;5826;54.756;9.192;2023-11-19T14:21:55;11.40;92.80
11540;DHT22;5826;54.756;9.192;2023-11-19T14:24:21;11.40;92.90
11540;DHT22;5826;54.756;9.192;2023-11-19T14:26:47;11.40;92.80
11540;DHT22;5826;54.756;9.192;2023-11-19T14:29:14;11.40;92.80
11540;DHT22;5826;54.756;9.192;2023-11-19T14:31:39;11.30;92.70
11540;DHT22;5826;54.756;9.192;2023-11-19T14:34:05;11.40;92.60
11540;DHT22;5826;54.756;9.192;2023-11-19T14:36:30;11.30;92.80
11540;DHT22;5826;54.756;9.192;2023-11-19T14:38:56;11.30;92.60
11540;DHT22;5826;54.756;9.192;2023-11-19T14:41:24;11.30;92.50
11540;DHT22;5826;54.756;9.192;2023-11-19T14:43:49;11.30;92.50
11540;DHT22;5826;54.756;9.192;2023-11-19T14:46:15;11.30;92.40
11540;DHT22;5826;54.756;9.192;2023-11-19T14:48:40;11.30;92.70
11540;DHT22;5826;54.756;9.192;2023-11-19T14:51:06;11.30;92.70
11540;DHT22;5826;54.756;9.192;2023-11-19T14:53:32;11.30;92.70
11540;DHT22;5826;54.756;9.192;2023-11-19T14:55:58;11.30;92.90
11540;DHT22;5826;54.756;9.192;2023-11-19T14:58:23;11.30;92.80
11540;DHT22;5826;54.756;9.192;2023-11-19T15:00:51;11.30;92.70
11540;DHT22;5826;54.756;9.192;2023-11-19T15:03:16;11.30;92.90
11540;DHT22;5826;54.756;9.192;2023-11-19T15:05:45;11.30;92.90
11540;DHT22;5826;54.756;9.192;2023-11-19T15:08:11;11.20;92.80
11540;DHT22;5826;54.756;9.192;2023-11-19T15:10:36;11.20;92.70
11540;DHT22;5826;54.756;9.192;2023-11-19T15:13:03;11.20;92.70
11540;DHT22;5826;54.756;9.192;2023-11-19T15:15:29;11.20;92.60
11540;DHT22;5826;54.756;9.192;2023-11-19T15:17:54;11.20;92.90
11540;DHT22;5826;54.756;9.192;2023-11-19T15:20:20;11.10;92.80
11540;DHT22;5826;54.756;9.192;2023-11-19T15:22:46;11.10;92.80
11540;DHT22;5826;54.756;9.192;2023-11-19T15:25:12;11.10;92.80
11540;DHT22;5826;54.756;9.192;2023-11-19T15:27:38;11.10;92.90
11540;DHT22;5826;54.756;9.192;2023-11-19T15:30:04;11.00;93.00
11540;DHT22;5826;54.756;9.192;2023-11-19T15:32:30;11.00;92.90
11540;DHT22;5826;54.756;9.192;2023-11-19T15:34:57;11.00;92.90
11540;DHT22;5826;54.756;9.192;2023-11-19T15:37:23;11.00;92.80
11540;DHT22;5826;54.756;9.192;2023-11-19T15:39:49;11.00;92.80
11540;DHT22;5826;54.756;9.192;2023-11-19T15:42:17;11.00;92.80
11540;DHT22;5826;54.756;9.192;2023-11-19T15:44:42;11.00;92.90
11540;DHT22;5826;54.756;9.192;2023-11-19T15:47:09;10.90;92.90
11540;DHT22;5826;54.756;9.192;2023-11-19T15:49:34;10.90;92.90
11540;DHT22;5826;54.756;9.192;2023-11-19T15:52:00;10.90;92.90
11540;DHT22;5826;54.756;9.192;2023-11-19T15:54:26;10.90;92.90
11540;DHT22;5826;54.756;9.192;2023-11-19T15:56:51;10.90;92.90
11540;DHT22;5826;54.756;9.192;2023-11-19T15:59:17;10.90;92.90
11540;DHT22;5826;54.756;9.192;2023-11-19T16:01:42;10.90;93.00
11540;DHT22;5826;54.756;9.192;2023-11-19T16:04:09;10.80;93.00
11540;DHT22;5826;54.756;9.192;2023-11-19T16:06:34;10.80;92.90
11540;DHT22;5826;54.756;9.192;2023-11-19T16:09:00;10.80;93.00
11540;DHT22;5826;54.756;9.192;2023-11-19T16:11:26;10.80;92.90
11540;DHT22;5826;54.756;9.192;2023-11-19T16:13:51;10.80;92.90
11540;DHT22;5826;54.756;9.192;2023-11-19T16:16:17;10.80;93.00
11540;DHT22;5826;54.756;9.192;2023-11-19T16:18:42;10.80;92.90
11540;DHT22;5826;54.756;9.192;2023-11-19T16:21:08;10.70;92.80